Terminal Aerodrome Forecast
Issued by NWS

Home | Current Version | Previous Version | Text Only | Print | Product List | Glossary On
Versions: 1 2 3 4 5 6 7 8 9 10 11 12 13 14 15 16 17 18 19 20 21 22 23 24 25 26
483
FTUS46 KPDT 140318 AAA
TAFALW
TAF AMD
KALW 140318Z 1403/1424 20011KT P6SM -RA OVC035
      TEMPO 1403/1407 5SM RA OVC025
     FM140700 19011KT 6SM -RA OVC025
     FM141800 21013KT 6SM -SHRA BKN025 OVC040=

USA.gov is the U.S. government's official web portal to all federal, state and local government web resources and services.